sensor_id;sensor_type;location;lat;lon;timestamp;pressure;altitude;pressure_sealevel;temperature
70435;BMP280;57876;47.792;12.960;2022-12-07T00:01:24;96741.44;;;17.44
70435;BMP280;57876;47.792;12.960;2022-12-07T00:03:50;96748.19;;;17.43
70435;BMP280;57876;47.792;12.960;2022-12-07T00:06:19;96737.78;;;17.41
70435;BMP280;57876;47.792;12.960;2022-12-07T00:08:44;96744.53;;;17.40
70435;BMP280;57876;47.792;12.960;2022-12-07T00:11:17;96743.09;;;17.39
70435;BMP280;57876;47.792;12.960;2022-12-07T00:13:42;96738.94;;;17.38
70435;BMP280;57876;47.792;12.960;2022-12-07T00:16:12;96732.56;;;17.36
70435;BMP280;57876;47.792;12.960;2022-12-07T00:18:38;96737.31;;;17.35
70435;BMP280;57876;47.792;12.960;2022-12-07T00:21:14;96737.19;;;17.33
70435;BMP280;57876;47.792;12.960;2022-12-07T00:23:39;96736.44;;;17.33
70435;BMP280;57876;47.792;12.960;2022-12-07T00:26:09;96733.00;;;17.32
70435;BMP280;57876;47.792;12.960;2022-12-07T00:28:34;96726.09;;;17.31
70435;BMP280;57876;47.792;12.960;2022-12-07T00:31:01;96725.22;;;17.29
70435;BMP280;57876;47.792;12.960;2022-12-07T00:33:25;96724.47;;;17.28
70435;BMP280;57876;47.792;12.960;2022-12-07T00:35:55;96720.28;;;17.27
70435;BMP280;57876;47.792;12.960;2022-12-07T00:38:20;96716.09;;;17.26
70435;BMP280;57876;47.792;12.960;2022-12-07T00:40:53;96724.31;;;17.26
70435;BMP280;57876;47.792;12.960;2022-12-07T00:43:18;96717.38;;;17.25
70435;BMP280;57876;47.792;12.960;2022-12-07T00:45:42;96711.06;;;17.23
70435;BMP280;57876;47.792;12.960;2022-12-07T00:48:07;96711.06;;;17.23
70435;BMP280;57876;47.792;12.960;2022-12-07T00:50:31;96703.41;;;17.21
70435;BMP280;57876;47.792;12.960;2022-12-07T00:52:55;96708.88;;;17.21
70435;BMP280;57876;47.792;12.960;2022-12-07T00:55:20;96714.94;;;17.20
70435;BMP280;57876;47.792;12.960;2022-12-07T00:57:44;96708.75;;;17.20
70435;BMP280;57876;47.792;12.960;2022-12-07T01:00:08;96718.25;;;17.19
70435;BMP280;57876;47.792;12.960;2022-12-07T01:02:33;96710.59;;;17.17
70435;BMP280;57876;47.792;12.960;2022-12-07T01:04:57;96718.06;;;17.17
70435;BMP280;57876;47.792;12.960;2022-12-07T01:07:22;96721.38;;;17.15
70435;BMP280;57876;47.792;12.960;2022-12-07T01:09:46;96721.38;;;17.15
70435;BMP280;57876;47.792;12.960;2022-12-07T01:12:11;96720.63;;;17.15
70435;BMP280;57876;47.792;12.960;2022-12-07T01:14:35;96719.34;;;17.16
70435;BMP280;57876;47.792;12.960;2022-12-07T01:16:59;96723.38;;;17.15
70435;BMP280;57876;47.792;12.960;2022-12-07T01:19:24;96724.66;;;17.14
70435;BMP280;57876;47.792;12.960;2022-12-07T01:21:48;96719.03;;;17.12
70435;BMP280;57876;47.792;12.960;2022-12-07T01:24:13;96726.53;;;17.11
70435;BMP280;57876;47.792;12.960;2022-12-07T01:26:37;96728.50;;;17.11
70435;BMP280;57876;47.792;12.960;2022-12-07T01:29:02;96725.09;;;17.10
70435;BMP280;57876;47.792;12.960;2022-12-07T01:31:27;96727.09;;;17.10
70435;BMP280;57876;47.792;12.960;2022-12-07T01:33:54;96716.69;;;17.08
70435;BMP280;57876;47.792;12.960;2022-12-07T01:36:21;96719.44;;;17.08
70435;BMP280;57876;47.792;12.960;2022-12-07T01:38:47;96725.47;;;17.07
70435;BMP280;57876;47.792;12.960;2022-12-07T01:41:13;96717.28;;;17.07
70435;BMP280;57876;47.792;12.960;2022-12-07T01:46:36;96720.59;;;17.05
70435;BMP280;57876;47.792;12.960;2022-12-07T01:49:03;96717.69;;;17.03
70435;BMP280;57876;47.792;12.960;2022-12-07T01:51:29;96714.94;;;17.03
70435;BMP280;57876;47.792;12.960;2022-12-07T01:53:57;96708.78;;;17.03
70435;BMP280;57876;47.792;12.960;2022-12-07T01:56:25;96708.03;;;17.02
70435;BMP280;57876;47.792;12.960;2022-12-07T01:58:51;96716.81;;;17.01
70435;BMP280;57876;47.792;12.960;2022-12-07T02:01:17;96707.16;;;17.00
70435;BMP280;57876;47.792;12.960;2022-12-07T02:03:43;96718.09;;;17.00
70435;BMP280;57876;47.792;12.960;2022-12-07T02:06:11;96713.91;;;16.99
70435;BMP280;57876;47.792;12.960;2022-12-07T02:08:36;96712.47;;;16.98
70435;BMP280;57876;47.792;12.960;2022-12-07T02:11:02;96717.22;;;16.97
70435;BMP280;57876;47.792;12.960;2022-12-07T02:13:30;96709.72;;;16.98
70435;BMP280;57876;47.792;12.960;2022-12-07T02:16:21;96708.28;;;16.97
70435;BMP280;57876;47.792;12.960;2022-12-07T02:19:19;96709.59;;;16.96
70435;BMP280;57876;47.792;12.960;2022-12-07T02:24:42;96704.69;;;16.94
70435;BMP280;57876;47.792;12.960;2022-12-07T02:32:42;96709.25;;;16.92
70435;BMP280;57876;47.792;12.960;2022-12-07T02:35:24;96703.06;;;16.91
70435;BMP280;57876;47.792;12.960;2022-12-07T02:43:18;96700.19;;;16.89
70435;BMP280;57876;47.792;12.960;2022-12-07T02:45:44;96704.94;;;16.89
70435;BMP280;57876;47.792;12.960;2022-12-07T02:48:10;96706.94;;;16.88
70435;BMP280;57876;47.792;12.960;2022-12-07T02:50:35;96698.00;;;16.88
70435;BMP280;57876;47.792;12.960;2022-12-07T02:53:00;96704.03;;;16.86
70435;BMP280;57876;47.792;12.960;2022-12-07T02:55:29;96699.28;;;16.87
70435;BMP280;57876;47.792;12.960;2022-12-07T02:58:23;96700.59;;;16.86
70435;BMP280;57876;47.792;12.960;2022-12-07T03:01:10;96695.13;;;16.86
70435;BMP280;57876;47.792;12.960;2022-12-07T03:03:40;96696.41;;;16.85
70435;BMP280;57876;47.792;12.960;2022-12-07T03:06:15;96693.66;;;16.85
70435;BMP280;57876;47.792;12.960;2022-12-07T03:09:06;96701.16;;;16.84
70435;BMP280;57876;47.792;12.960;2022-12-07T03:11:45;96697.69;;;16.84
70435;BMP280;57876;47.792;12.960;2022-12-07T03:14:30;96697.69;;;16.84
70435;BMP280;57876;47.792;12.960;2022-12-07T03:17:03;96688.78;;;16.83
70435;BMP280;57876;47.792;12.960;2022-12-07T03:19:31;96690.06;;;16.82
70435;BMP280;57876;47.792;12.960;2022-12-07T03:22:09;96696.22;;;16.83
70435;BMP280;57876;47.792;12.960;2022-12-07T03:24:39;96692.06;;;16.82
70435;BMP280;57876;47.792;12.960;2022-12-07T03:27:07;96685.16;;;16.81
70435;BMP280;57876;47.792;12.960;2022-12-07T03:29:43;96690.63;;;16.81
70435;BMP280;57876;47.792;12.960;2022-12-07T03:32:20;96689.91;;;16.80
70435;BMP280;57876;47.792;12.960;2022-12-07T03:34:54;96688.47;;;16.79
70435;BMP280;57876;47.792;12.960;2022-12-07T03:37:37;96691.19;;;16.79
70435;BMP280;57876;47.792;12.960;2022-12-07T03:42:31;96694.47;;;16.78
70435;BMP280;57876;47.792;12.960;2022-12-07T03:44:56;96699.19;;;16.77
70435;BMP280;57876;47.792;12.960;2022-12-07T03:50:35;96697.06;;;16.76
70435;BMP280;57876;47.792;12.960;2022-12-07T03:53:15;96691.59;;;16.76
70435;BMP280;57876;47.792;12.960;2022-12-07T03:55:44;96690.88;;;16.75
70435;BMP280;57876;47.792;12.960;2022-12-07T03:58:13;96691.44;;;16.74
70435;BMP280;57876;47.792;12.960;2022-12-07T04:00:38;96695.63;;;16.75
70435;BMP280;57876;47.792;12.960;2022-12-07T04:03:04;96687.97;;;16.73
70435;BMP280;57876;47.792;12.960;2022-12-07T04:05:28;96684.53;;;16.73
70435;BMP280;57876;47.792;12.960;2022-12-07T04:07:53;96682.50;;;16.73
70435;BMP280;57876;47.792;12.960;2022-12-07T04:10:18;96676.91;;;16.71
70435;BMP280;57876;47.792;12.960;2022-12-07T04:12:42;96680.34;;;16.72
70435;BMP280;57876;47.792;12.960;2022-12-07T04:15:07;96684.53;;;16.73
70435;BMP280;57876;47.792;12.960;2022-12-07T04:17:32;96680.34;;;16.72
70435;BMP280;57876;47.792;12.960;2022-12-07T04:19:56;96684.34;;;16.71
70435;BMP280;57876;47.792;12.960;2022-12-07T04:22:21;96682.91;;;16.70
70435;BMP280;57876;47.792;12.960;2022-12-07T04:24:45;96683.66;;;16.70
70435;BMP280;57876;47.792;12.960;2022-12-07T04:27:09;96687.66;;;16.69
70435;BMP280;57876;47.792;12.960;2022-12-07T04:29:34;96682.19;;;16.69
70435;BMP280;57876;47.792;12.960;2022-12-07T04:31:58;96686.91;;;16.69
70435;BMP280;57876;47.792;12.960;2022-12-07T04:34:22;96686.91;;;16.69
70435;BMP280;57876;47.792;12.960;2022-12-07T04:36:47;96687.50;;;16.67
70435;BMP280;57876;47.792;12.960;2022-12-07T04:41:45;96685.47;;;16.68
70435;BMP280;57876;47.792;12.960;2022-12-07T04:44:10;96685.47;;;16.68
70435;BMP280;57876;47.792;12.960;2022-12-07T04:46:38;96695.69;;;16.67
70435;BMP280;57876;47.792;12.960;2022-12-07T04:49:02;96686.75;;;16.67
70435;BMP280;57876;47.792;12.960;2022-12-07T04:51:28;96686.06;;;16.66
70435;BMP280;57876;47.792;12.960;2022-12-07T04:53:54;96693.53;;;16.66
70435;BMP280;57876;47.792;12.960;2022-12-07T04:56:18;96692.06;;;16.65
70435;BMP280;57876;47.792;12.960;2022-12-07T04:58:44;96685.34;;;16.66
70435;BMP280;57876;47.792;12.960;2022-12-07T05:01:09;96690.09;;;16.65
70435;BMP280;57876;47.792;12.960;2022-12-07T05:03:34;96684.63;;;16.65
70435;BMP280;57876;47.792;12.960;2022-12-07T05:05:59;96685.91;;;16.64
70435;BMP280;57876;47.792;12.960;2022-12-07T05:08:23;96689.34;;;16.65
70435;BMP280;57876;47.792;12.960;2022-12-07T05:10:48;96692.06;;;16.65
70435;BMP280;57876;47.792;12.960;2022-12-07T05:13:13;96688.63;;;16.64
70435;BMP280;57876;47.792;12.960;2022-12-07T05:15:37;96685.16;;;16.64
70435;BMP280;57876;47.792;12.960;2022-12-07T05:18:02;96683.72;;;16.63
70435;BMP280;57876;47.792;12.960;2022-12-07T05:20:27;96683.16;;;16.64
70435;BMP280;57876;47.792;12.960;2022-12-07T05:22:51;96677.50;;;16.62
70435;BMP280;57876;47.792;12.960;2022-12-07T05:25:16;96682.25;;;16.62
70435;BMP280;57876;47.792;12.960;2022-12-07T05:27:40;96681.00;;;16.63
70435;BMP280;57876;47.792;12.960;2022-12-07T05:30:05;96674.06;;;16.62
70435;BMP280;57876;47.792;12.960;2022-12-07T05:32:30;96678.13;;;16.61
70435;BMP280;57876;47.792;12.960;2022-12-07T05:34:54;96677.38;;;16.60
70435;BMP280;57876;47.792;12.960;2022-12-07T05:37:18;96683.56;;;16.61
70435;BMP280;57876;47.792;12.960;2022-12-07T05:39:43;96682.84;;;16.60
70435;BMP280;57876;47.792;12.960;2022-12-07T05:42:10;96673.19;;;16.59
70435;BMP280;57876;47.792;12.960;2022-12-07T05:44:42;96669.19;;;16.60
70435;BMP280;57876;47.792;12.960;2022-12-07T05:47:07;96666.59;;;16.62
70435;BMP280;57876;47.792;12.960;2022-12-07T05:49:32;96675.28;;;16.68
70435;BMP280;57876;47.792;12.960;2022-12-07T05:51:56;96678.09;;;16.78
70435;BMP280;57876;47.792;12.960;2022-12-07T05:54:20;96679.59;;;16.88
70435;BMP280;57876;47.792;12.960;2022-12-07T05:56:45;96677.59;;;17.06
70435;BMP280;57876;47.792;12.960;2022-12-07T05:59:09;96682.38;;;17.15
70435;BMP280;57876;47.792;12.960;2022-12-07T06:01:54;96680.19;;;17.30
70435;BMP280;57876;47.792;12.960;2022-12-07T06:04:19;96690.00;;;17.42
70435;BMP280;57876;47.792;12.960;2022-12-07T06:06:44;96679.69;;;17.50
70435;BMP280;57876;47.792;12.960;2022-12-07T06:09:08;96680.31;;;17.58
70435;BMP280;57876;47.792;12.960;2022-12-07T06:11:33;96680.34;;;17.68
70435;BMP280;57876;47.792;12.960;2022-12-07T06:14:16;96683.13;;;17.77
70435;BMP280;57876;47.792;12.960;2022-12-07T06:16:40;96677.53;;;17.85
70435;BMP280;57876;47.792;12.960;2022-12-07T06:19:05;96687.94;;;17.95
70435;BMP280;57876;47.792;12.960;2022-12-07T06:21:29;96688.25;;;17.99
70435;BMP280;57876;47.792;12.960;2022-12-07T06:23:54;96694.72;;;18.04
70435;BMP280;57876;47.792;12.960;2022-12-07T06:26:18;96691.41;;;18.05
70435;BMP280;57876;47.792;12.960;2022-12-07T06:28:43;96690.28;;;18.08
70435;BMP280;57876;47.792;12.960;2022-12-07T06:31:07;96695.16;;;18.10
70435;BMP280;57876;47.792;12.960;2022-12-07T06:33:32;96700.78;;;18.12
70435;BMP280;57876;47.792;12.960;2022-12-07T06:35:56;96701.09;;;18.16
70435;BMP280;57876;47.792;12.960;2022-12-07T06:38:21;96695.06;;;18.17
70435;BMP280;57876;47.792;12.960;2022-12-07T06:40:45;96703.69;;;18.23
70435;BMP280;57876;47.792;12.960;2022-12-07T06:43:10;96705.28;;;18.26
70435;BMP280;57876;47.792;12.960;2022-12-07T06:45:34;96710.88;;;18.28
70435;BMP280;57876;47.792;12.960;2022-12-07T06:47:59;96712.94;;;18.28
70435;BMP280;57876;47.792;12.960;2022-12-07T06:50:23;96713.50;;;18.26
70435;BMP280;57876;47.792;12.960;2022-12-07T06:52:47;96714.78;;;18.25
70435;BMP280;57876;47.792;12.960;2022-12-07T06:55:12;96703.13;;;18.25
70435;BMP280;57876;47.792;12.960;2022-12-07T06:57:36;96711.22;;;18.23
70435;BMP280;57876;47.792;12.960;2022-12-07T07:00:01;96708.28;;;18.21
70435;BMP280;57876;47.792;12.960;2022-12-07T07:02:25;96716.50;;;18.21
70435;BMP280;57876;47.792;12.960;2022-12-07T07:04:50;96715.66;;;18.18
70435;BMP280;57876;47.792;12.960;2022-12-07T07:07:14;96715.50;;;18.16
70435;BMP280;57876;47.792;12.960;2022-12-07T07:09:38;96725.00;;;18.15
70435;BMP280;57876;47.792;12.960;2022-12-07T07:12:03;96721.53;;;18.15
70435;BMP280;57876;47.792;12.960;2022-12-07T07:14:27;96725.44;;;18.12
70435;BMP280;57876;47.792;12.960;2022-12-07T07:16:52;96725.44;;;18.12
70435;BMP280;57876;47.792;12.960;2022-12-07T07:19:16;96731.47;;;18.10
70435;BMP280;57876;47.792;12.960;2022-12-07T07:21:41;96728.72;;;18.10
70435;BMP280;57876;47.792;12.960;2022-12-07T07:24:05;96730.03;;;18.09
70435;BMP280;57876;47.792;12.960;2022-12-07T07:26:30;96740.13;;;18.07
70435;BMP280;57876;47.792;12.960;2022-12-07T07:28:54;96733.19;;;18.06
70435;BMP280;57876;47.792;12.960;2022-12-07T07:31:18;96742.13;;;18.06
70435;BMP280;57876;47.792;12.960;2022-12-07T07:33:45;96731.75;;;18.05
70435;BMP280;57876;47.792;12.960;2022-12-07T07:36:10;96736.50;;;18.04
70435;BMP280;57876;47.792;12.960;2022-12-07T07:38:34;96737.81;;;18.03
70435;BMP280;57876;47.792;12.960;2022-12-07T07:40:59;96730.31;;;18.04
70435;BMP280;57876;47.792;12.960;2022-12-07T07:43:23;96733.63;;;18.02
70435;BMP280;57876;47.792;12.960;2022-12-07T07:45:48;96741.84;;;18.02
70435;BMP280;57876;47.792;12.960;2022-12-07T07:48:12;96737.66;;;18.01
70435;BMP280;57876;47.792;12.960;2022-12-07T07:50:36;96740.38;;;18.01
70435;BMP280;57876;47.792;12.960;2022-12-07T07:53:01;96747.16;;;18.00
70435;BMP280;57876;47.792;12.960;2022-12-07T07:55:25;96741.66;;;18.00
70435;BMP280;57876;47.792;12.960;2022-12-07T07:57:50;96741.66;;;18.00
70435;BMP280;57876;47.792;12.960;2022-12-07T08:00:15;96749.19;;;18.00
70435;BMP280;57876;47.792;12.960;2022-12-07T08:02:40;96742.25;;;17.99
70435;BMP280;57876;47.792;12.960;2022-12-07T08:05:05;96753.19;;;17.99
70435;BMP280;57876;47.792;12.960;2022-12-07T08:07:30;96764.88;;;17.99
70435;BMP280;57876;47.792;12.960;2022-12-07T08:09:55;96760.69;;;17.98
70435;BMP280;57876;47.792;12.960;2022-12-07T08:12:19;96764.16;;;17.99
70435;BMP280;57876;47.792;12.960;2022-12-07T08:14:43;96766.16;;;17.98
70435;BMP280;57876;47.792;12.960;2022-12-07T08:17:08;96770.38;;;17.99
70435;BMP280;57876;47.792;12.960;2022-12-07T08:19:32;96768.88;;;17.98
70435;BMP280;57876;47.792;12.960;2022-12-07T08:21:57;96775.84;;;17.99
70435;BMP280;57876;47.792;12.960;2022-12-07T08:24:22;96777.09;;;17.98
70435;BMP280;57876;47.792;12.960;2022-12-07T08:26:47;96772.38;;;17.99
70435;BMP280;57876;47.792;12.960;2022-12-07T08:29:11;96783.31;;;17.99
70435;BMP280;57876;47.792;12.960;2022-12-07T08:31:36;96784.59;;;17.98
70435;BMP280;57876;47.792;12.960;2022-12-07T08:34:00;96786.06;;;17.99
70435;BMP280;57876;47.792;12.960;2022-12-07T08:36:24;96781.88;;;17.98
70435;BMP280;57876;47.792;12.960;2022-12-07T08:38:49;96792.06;;;17.97
70435;BMP280;57876;47.792;12.960;2022-12-07T08:41:14;96792.06;;;17.97
70435;BMP280;57876;47.792;12.960;2022-12-07T08:43:39;96787.34;;;17.98
70435;BMP280;57876;47.792;12.960;2022-12-07T08:46:14;96793.38;;;17.96
70435;BMP280;57876;47.792;12.960;2022-12-07T08:48:46;96793.38;;;17.96
70435;BMP280;57876;47.792;12.960;2022-12-07T08:51:13;96800.16;;;17.95
70435;BMP280;57876;47.792;12.960;2022-12-07T08:53:38;96803.47;;;17.94
70435;BMP280;57876;47.792;12.960;2022-12-07T08:56:03;96808.78;;;17.92
70435;BMP280;57876;47.792;12.960;2022-12-07T08:58:28;96806.75;;;17.92
70435;BMP280;57876;47.792;12.960;2022-12-07T09:00:52;96805.31;;;17.92
70435;BMP280;57876;47.792;12.960;2022-12-07T09:03:16;96807.31;;;17.91
70435;BMP280;57876;47.792;12.960;2022-12-07T09:05:41;96808.63;;;17.90
70435;BMP280;57876;47.792;12.960;2022-12-07T09:08:06;96813.53;;;17.92
70435;BMP280;57876;47.792;12.960;2022-12-07T09:10:30;96812.81;;;17.91
70435;BMP280;57876;47.792;12.960;2022-12-07T09:12:55;96811.53;;;17.92
70435;BMP280;57876;47.792;12.960;2022-12-07T09:15:19;96804.75;;;17.93
70435;BMP280;57876;47.792;12.960;2022-12-07T09:17:44;96801.28;;;17.92
70435;BMP280;57876;47.792;12.960;2022-12-07T09:20:08;96794.53;;;17.93
70435;BMP280;57876;47.792;12.960;2022-12-07T09:22:33;96795.97;;;17.94
70435;BMP280;57876;47.792;12.960;2022-12-07T09:24:58;96792.66;;;17.96
70435;BMP280;57876;47.792;12.960;2022-12-07T09:27:23;96793.38;;;17.96
70435;BMP280;57876;47.792;12.960;2022-12-07T09:29:47;96790.06;;;17.98
70435;BMP280;57876;47.792;12.960;2022-12-07T09:32:11;96791.53;;;17.99
70435;BMP280;57876;47.792;12.960;2022-12-07T09:34:36;96786.19;;;18.01
70435;BMP280;57876;47.792;12.960;2022-12-07T09:37:01;96780.72;;;18.01
70435;BMP280;57876;47.792;12.960;2022-12-07T09:39:27;96787.63;;;18.02
70435;BMP280;57876;47.792;12.960;2022-12-07T09:41:51;96780.16;;;18.02
70435;BMP280;57876;47.792;12.960;2022-12-07T09:44:24;96778.13;;;18.03
70435;BMP280;57876;47.792;12.960;2022-12-07T09:46:49;96782.31;;;18.04
70435;BMP280;57876;47.792;12.960;2022-12-07T09:49:18;96772.81;;;18.05
70435;BMP280;57876;47.792;12.960;2022-12-07T09:51:43;96770.78;;;18.05
70435;BMP280;57876;47.792;12.960;2022-12-07T09:54:12;96774.97;;;18.06
70435;BMP280;57876;47.792;12.960;2022-12-07T09:56:37;96770.94;;;18.07
70435;BMP280;57876;47.792;12.960;2022-12-07T09:59:02;96760.75;;;18.08
70435;BMP280;57876;47.792;12.960;2022-12-07T10:01:32;96767.66;;;18.09
70435;BMP280;57876;47.792;12.960;2022-12-07T10:04:12;96757.41;;;18.09
70435;BMP280;57876;47.792;12.960;2022-12-07T10:06:38;96756.72;;;18.09
70435;BMP280;57876;47.792;12.960;2022-12-07T10:09:12;96754.69;;;18.09
70435;BMP280;57876;47.792;12.960;2022-12-07T10:14:32;96752.06;;;18.11
70435;BMP280;57876;47.792;12.960;2022-12-07T10:16:57;96743.16;;;18.11
70435;BMP280;57876;47.792;12.960;2022-12-07T10:19:26;96740.41;;;18.11
70435;BMP280;57876;47.792;12.960;2022-12-07T10:22:13;96738.38;;;18.11
70435;BMP280;57876;47.792;12.960;2022-12-07T10:24:42;96739.13;;;18.12
70435;BMP280;57876;47.792;12.960;2022-12-07T10:27:29;96734.34;;;18.12
70435;BMP280;57876;47.792;12.960;2022-12-07T10:29:54;96726.16;;;18.12
70435;BMP280;57876;47.792;12.960;2022-12-07T10:34:43;96730.34;;;18.13
70435;BMP280;57876;47.792;12.960;2022-12-07T10:39:54;96724.28;;;18.15
70435;BMP280;57876;47.792;12.960;2022-12-07T10:44:45;96733.81;;;18.14
70435;BMP280;57876;47.792;12.960;2022-12-07T11:00:31;96736.13;;;18.17
70435;BMP280;57876;47.792;12.960;2022-12-07T11:11:26;96720.25;;;18.16
70435;BMP280;57876;47.792;12.960;2022-12-07T11:14:25;96720.81;;;18.14
70435;BMP280;57876;47.792;12.960;2022-12-07T11:17:20;96720.13;;;18.14
70435;BMP280;57876;47.792;12.960;2022-12-07T11:19:50;96710.47;;;18.13
70435;BMP280;57876;47.792;12.960;2022-12-07T11:25:13;96703.53;;;18.12
70435;BMP280;57876;47.792;12.960;2022-12-07T11:27:48;96702.94;;;18.13
70435;BMP280;57876;47.792;12.960;2022-12-07T11:30:23;96696.03;;;18.12
70435;BMP280;57876;47.792;12.960;2022-12-07T11:36:07;96699.50;;;18.13
70435;BMP280;57876;47.792;12.960;2022-12-07T11:41:04;96700.22;;;18.13
70435;BMP280;57876;47.792;12.960;2022-12-07T11:46:45;96686.53;;;18.13
70435;BMP280;57876;47.792;12.960;2022-12-07T11:49:42;96679.03;;;18.14
70435;BMP280;57876;47.792;12.960;2022-12-07T11:52:16;96683.19;;;18.15
70435;BMP280;57876;47.792;12.960;2022-12-07T11:54:44;96683.94;;;18.15
70435;BMP280;57876;47.792;12.960;2022-12-07T11:57:28;96665.47;;;18.16
70435;BMP280;57876;47.792;12.960;2022-12-07T12:00:00;96660.75;;;18.16
70435;BMP280;57876;47.792;12.960;2022-12-07T12:02:46;96661.44;;;18.17
70435;BMP280;57876;47.792;12.960;2022-12-07T12:05:16;96660.91;;;18.18
70435;BMP280;57876;47.792;12.960;2022-12-07T12:07:41;96659.59;;;18.19
70435;BMP280;57876;47.792;12.960;2022-12-07T12:10:38;96652.06;;;18.20
70435;BMP280;57876;47.792;12.960;2022-12-07T12:21:20;96647.34;;;18.20
70435;BMP280;57876;47.792;12.960;2022-12-07T12:26:26;96650.78;;;18.21
70435;BMP280;57876;47.792;12.960;2022-12-07T12:28:59;96653.53;;;18.21
70435;BMP280;57876;47.792;12.960;2022-12-07T12:33:54;96642.00;;;18.22
70435;BMP280;57876;47.792;12.960;2022-12-07T12:39:16;96638.56;;;18.22
70435;BMP280;57876;47.792;12.960;2022-12-07T12:51:44;96635.22;;;18.23
70435;BMP280;57876;47.792;12.960;2022-12-07T12:54:15;96635.22;;;18.23
70435;BMP280;57876;47.792;12.960;2022-12-07T12:59:29;96616.06;;;18.23
70435;BMP280;57876;47.792;12.960;2022-12-07T13:02:47;96622.25;;;18.24
70435;BMP280;57876;47.792;12.960;2022-12-07T13:28:37;96620.97;;;18.25
70435;BMP280;57876;47.792;12.960;2022-12-07T13:31:09;96616.78;;;18.24
70435;BMP280;57876;47.792;12.960;2022-12-07T13:33:35;96611.91;;;18.22
70435;BMP280;57876;47.792;12.960;2022-12-07T13:36:00;96619.41;;;18.22
70435;BMP280;57876;47.792;12.960;2022-12-07T13:38:30;96613.91;;;18.22
70435;BMP280;57876;47.792;12.960;2022-12-07T13:41:14;96614.34;;;18.18
70435;BMP280;57876;47.792;12.960;2022-12-07T13:44:05;96615.03;;;18.19
70435;BMP280;57876;47.792;12.960;2022-12-07T13:47:00;96615.66;;;18.17
70435;BMP280;57876;47.792;12.960;2022-12-07T13:49:30;96609.44;;;18.17
70435;BMP280;57876;47.792;12.960;2022-12-07T13:52:16;96612.16;;;18.17
70435;BMP280;57876;47.792;12.960;2022-12-07T13:57:25;96621.13;;;18.17
70435;BMP280;57876;47.792;12.960;2022-12-07T13:59:50;96611.47;;;18.16
70435;BMP280;57876;47.792;12.960;2022-12-07T14:02:22;96612.16;;;18.17
70435;BMP280;57876;47.792;12.960;2022-12-07T14:04:50;96614.34;;;18.18
70435;BMP280;57876;47.792;12.960;2022-12-07T14:07:19;96610.16;;;18.17
70435;BMP280;57876;47.792;12.960;2022-12-07T14:09:53;96620.38;;;18.17
70435;BMP280;57876;47.792;12.960;2022-12-07T14:12:18;96620.38;;;18.17
70435;BMP280;57876;47.792;12.960;2022-12-07T14:14:47;96617.22;;;18.20
70435;BMP280;57876;47.792;12.960;2022-12-07T14:17:16;96612.91;;;18.17
70435;BMP280;57876;47.792;12.960;2022-12-07T14:19:45;96606.81;;;18.19
70435;BMP280;57876;47.792;12.960;2022-12-07T14:22:35;96609.56;;;18.19
70435;BMP280;57876;47.792;12.960;2022-12-07T14:27:36;96611.75;;;18.20
70435;BMP280;57876;47.792;12.960;2022-12-07T14:30:03;96616.47;;;18.20
70435;BMP280;57876;47.792;12.960;2022-12-07T14:32:29;96597.31;;;18.20
70435;BMP280;57876;47.792;12.960;2022-12-07T14:35:02;96606.97;;;18.21
70435;BMP280;57876;47.792;12.960;2022-12-07T14:37:28;96610.44;;;18.21
70435;BMP280;57876;47.792;12.960;2022-12-07T14:39:53;96612.44;;;18.21
70435;BMP280;57876;47.792;12.960;2022-12-07T14:42:17;96611.19;;;18.22
70435;BMP280;57876;47.792;12.960;2022-12-07T14:44:41;96605.72;;;18.22
70435;BMP280;57876;47.792;12.960;2022-12-07T14:47:11;96607.72;;;18.21
70435;BMP280;57876;47.792;12.960;2022-12-07T14:49:35;96608.44;;;18.22
70435;BMP280;57876;47.792;12.960;2022-12-07T14:52:00;96604.97;;;18.21
70435;BMP280;57876;47.792;12.960;2022-12-07T14:54:27;96610.56;;;18.23
70435;BMP280;57876;47.792;12.960;2022-12-07T14:56:53;96608.44;;;18.22
70435;BMP280;57876;47.792;12.960;2022-12-07T14:59:17;96604.41;;;18.23
70435;BMP280;57876;47.792;12.960;2022-12-07T15:01:42;96609.16;;;18.22
70435;BMP280;57876;47.792;12.960;2022-12-07T15:04:07;96613.31;;;18.23
70435;BMP280;57876;47.792;12.960;2022-12-07T15:06:31;96612.63;;;18.23
70435;BMP280;57876;47.792;12.960;2022-12-07T15:08:56;96607.16;;;18.23
70435;BMP280;57876;47.792;12.960;2022-12-07T15:11:20;96611.31;;;18.24
70435;BMP280;57876;47.792;12.960;2022-12-07T15:13:45;96614.03;;;18.24
70435;BMP280;57876;47.792;12.960;2022-12-07T15:16:27;96609.91;;;18.23
70435;BMP280;57876;47.792;12.960;2022-12-07T15:18:52;96608.56;;;18.24
70435;BMP280;57876;47.792;12.960;2022-12-07T15:21:16;96603.09;;;18.24
70435;BMP280;57876;47.792;12.960;2022-12-07T15:23:41;96609.28;;;18.24
70435;BMP280;57876;47.792;12.960;2022-12-07T15:26:06;96605.84;;;18.24
70435;BMP280;57876;47.792;12.960;2022-12-07T15:28:31;96606.53;;;18.24
70435;BMP280;57876;47.792;12.960;2022-12-07T15:30:56;96612.75;;;18.25
70435;BMP280;57876;47.792;12.960;2022-12-07T15:33:20;96605.84;;;18.24
70435;BMP280;57876;47.792;12.960;2022-12-07T15:35:45;96607.28;;;18.25
70435;BMP280;57876;47.792;12.960;2022-12-07T15:38:10;96603.81;;;18.24
70435;BMP280;57876;47.792;12.960;2022-12-07T15:40:35;96603.81;;;18.24
70435;BMP280;57876;47.792;12.960;2022-12-07T15:42:59;96607.28;;;18.25
70435;BMP280;57876;47.792;12.960;2022-12-07T15:45:24;96598.94;;;18.23
70435;BMP280;57876;47.792;12.960;2022-12-07T15:47:48;96597.50;;;18.22
70435;BMP280;57876;47.792;12.960;2022-12-07T15:50:15;96590.53;;;18.21
70435;BMP280;57876;47.792;12.960;2022-12-07T15:52:40;96593.28;;;18.21
70435;BMP280;57876;47.792;12.960;2022-12-07T15:55:05;96602.09;;;18.19
70435;BMP280;57876;47.792;12.960;2022-12-07T15:57:31;96598.59;;;18.19
70435;BMP280;57876;47.792;12.960;2022-12-07T15:59:55;96596.47;;;18.17
70435;BMP280;57876;47.792;12.960;2022-12-07T16:02:20;96599.34;;;18.19
70435;BMP280;57876;47.792;12.960;2022-12-07T16:04:44;96601.34;;;18.19
70435;BMP280;57876;47.792;12.960;2022-12-07T16:07:09;96595.19;;;18.18